CheckWX is a tool to help pilots better visualize weather data.  It is not intended as a substitute for an official pre-flight weather briefing.

17:52:22 UTC

EBCI TAF
Brussels South Charleroi Airport
Brussels, Belgium
TAF EBCI 241710Z 2418/2524 27005KT CAVOK BECMG 2507/2509 33014KT TEMPO 2511/2517 33015G25KT

Mar-24@
18:00 UTC

Mar-24 @ 18:00 UTC

Mar-25@
07:00 UTC

Mar-25 @ 07:00 UTC

TAF EBCI 241710Z 2418/2524 27005KT CAVOK
Wind
  • 270° at 5 KTS
Conditions
No significant weather
Cloud Levels
  • No significant clouds

Mar-25@
07:00 UTC

Mar-25 @ 07:00 UTC

Mar-26@
00:00 UTC

Mar-26 @ 00:00 UTC

BECMG 2507/2509 33014KT

Becoming

Becoming Conditions expected by Mon, Mar 25, 2019 @ 09:00 UTC

Wind
  • 330° at 14 KTS
Conditions
No significant weather
Cloud Levels
  • No significant clouds

Mar-25@
11:00 UTC

Mar-25 @ 11:00 UTC

Mar-25@
17:00 UTC

Mar-25 @ 17:00 UTC

TEMPO 2511/2517 33015G25KT

Temporary

Temporary Changes expected for less than half the time period

Wind
  • 330° at 15 KTS
  • {Gusting to 25 KTS